EIKN

Ireland West Knock Airport

Charleston, Ireland
TAF EIKN 210500Z 2106/2206 21006KT 5000 BR BKN007 TEMPO 2106/2110 3000 BR -DZ BKN004 PROB40 TEMPO 2106/2109 0600 FG BKN001 BECMG 2110/2112 21015KT 9999 NSW BKN012 BECMG 2112/2114 BKN005 TEMPO 2112/2119 21016G26KT BECMG 2114/2116 3000 -RADZ BKN002 TEMPO 2116/2204 0400 FG BKN001 BECMG 2200/2203 24010KT BECMG 2204/2206 30007KT 9999 NSW BKN005
Issued Valid From Valid To
Aug-21 @ 05:00 UTC
(13 hours ago)
Aug-21 @ 06:00 UTC
(12 hours ago)
Aug-22 @ 06:00 UTC
(in 12 hours)
Expired Click to View Aug-21 @ 06:00 to Aug-21 @ 10:00
TAF EIKN 210500Z 2106/2206 21006KT 5000 BR BKN007
Wind Visibility Clouds Conditions
210° at 6 knots 5,005 meters
  • Broken at 700' AGL
  • Mist
Expired Click to View Aug-21 @ 06:00 to Aug-21 @ 09:00
PROB40 TEMPO 2106/2109 0600 FG BKN001
Visibility Clouds Conditions
595 meters
  • Broken at 100' AGL
  • Fog
Expired Click to View Aug-21 @ 06:00 to Aug-21 @ 10:00
TEMPO 2106/2110 3000 BR -DZ BKN004
Visibility Clouds Conditions
2,993 meters
  • Broken at 400' AGL
  • Mist
  • Light Drizzle
Expired Click to View Aug-21 @ 10:00 to Aug-21 @ 12:00
BECMG 2110/2112 21015KT 9999 NSW BKN012
Wind Visibility Clouds Conditions
210° at 15 knots 10,000+ meters
  • Broken at 1,200' AGL
Expired Click to View Aug-21 @ 12:00 to Aug-21 @ 14:00
BECMG 2112/2114 BKN005
Wind Visibility Clouds Conditions
210° at 15 knots 10,000+ meters
  • Broken at 500' AGL
Temporary Aug-21 @ 12:00 to Aug-21 @ 19:00
TEMPO 2112/2119 21016G26KT
Wind
210° at 16 knots
 Gusting to 26 knots
Becoming Aug-21 @ 14:00 to Aug-22 @ 00:00
BECMG 2114/2116 3000 -RADZ BKN002
Wind Visibility Clouds Conditions
210° at 15 knots 2,993 meters
  • Broken at 200' AGL
  • Light Rain
  • Light Drizzle
Temporary Aug-21 @ 16:00 to Aug-22 @ 04:00
TEMPO 2116/2204 0400 FG BKN001
Visibility Clouds Conditions
402 meters
  • Broken at 100' AGL
  • Fog
Becoming Aug-22 @ 00:00 to Aug-22 @ 04:00
BECMG 2200/2203 24010KT
Wind Visibility Clouds Conditions
240° at 10 knots 2,993 meters
  • Broken at 200' AGL
  • Light Rain
  • Light Drizzle
Becoming Aug-22 @ 04:00 to Aug-22 @ 06:00
BECMG 2204/2206 30007KT 9999 NSW BKN005
Wind Visibility Clouds Conditions
300° at 7 knots 10,000+ meters
  • Broken at 500' AGL
TAF EIKN 210500Z 2106/2206 21006KT 5000 BR BKN007 TEMPO 2106/2110 3000 BR -DZ BKN004 PROB40 TEMPO 2106/2109 0600 FG BKN001 BECMG 2110/2112 21015KT 9999 NSW BKN012 BECMG 2112/2114 BKN005 TEMPO 2112/2119 21016G26KT BECMG 2114/2116 3000 -RADZ BKN002 TEMPO 2116/2204 0400 FG BKN001 BECMG 2200/2203 24010KT BECMG 2204/2206 30007KT 9999 NSW BKN005
Issued Aug-21 @ 05:00 UTC
(13 hours ago)
Valid From Aug-21 @ 06:00 UTC
(12 hours ago)
Valid To Aug-22 @ 06:00 UTC
(in 12 hours)
Aug-21 @ 06:00 - Aug-21 @ 10:00
Wind Visibility
210° at 6 knots 5,005 meters
Clouds
  • Broken at 700' AGL
Conditions
  • Mist
Aug-21 @ 06:00 - Aug-21 @ 09:00
Clouds
  • Broken at 100' AGL
Conditions
  • Fog
Aug-21 @ 06:00 - Aug-21 @ 10:00
Clouds
  • Broken at 400' AGL
Conditions
  • Mist
  • Light Drizzle
Aug-21 @ 10:00 - Aug-21 @ 12:00
Wind Visibility
210° at 15 knots 10,000+ meters
Clouds
  • Broken at 1,200' AGL
Conditions
Aug-21 @ 12:00 - Aug-21 @ 14:00
Wind Visibility
210° at 15 knots 10,000+ meters
Clouds
  • Broken at 500' AGL
Conditions
Temporary Aug-21 @ 12:00 - Aug-21 @ 19:00
Wind
210° at 16 knots
 Gusting to 26 knots
Becoming Aug-21 @ 14:00 - Aug-22 @ 00:00
Wind Visibility
210° at 15 knots 2,993 meters
Clouds
  • Broken at 200' AGL
Conditions
  • Light Rain
  • Light Drizzle
Temporary Aug-21 @ 16:00 - Aug-22 @ 04:00
Clouds
  • Broken at 100' AGL
Conditions
  • Fog
Becoming Aug-22 @ 00:00 - Aug-22 @ 04:00
Wind Visibility
240° at 10 knots 2,993 meters
Clouds
  • Broken at 200' AGL
Conditions
  • Light Rain
  • Light Drizzle
Becoming Aug-22 @ 04:00 - Aug-22 @ 06:00
Wind Visibility
300° at 7 knots 10,000+ meters
Clouds
  • Broken at 500' AGL
Conditions